createdAt,value
2019-02-15T00:03:55.939Z,5.23
2019-02-15T00:06:22.420Z,5.12
2019-02-15T00:08:48.978Z,5.01
2019-02-15T00:11:16.637Z,4.96
2019-02-15T00:13:43.330Z,4.97
2019-02-15T00:16:10.100Z,4.80
2019-02-15T00:18:38.528Z,4.73
2019-02-15T00:21:15.667Z,4.63
2019-02-15T00:23:42.409Z,4.50
2019-02-15T00:26:09.213Z,4.46
2019-02-15T00:28:35.895Z,4.37
2019-02-15T00:31:04.160Z,4.28
2019-02-15T00:33:30.768Z,4.19
2019-02-15T00:35:57.742Z,4.18
2019-02-15T00:38:24.835Z,4.19
2019-02-15T00:40:51.824Z,4.15
2019-02-15T00:43:22.665Z,4.14
2019-02-15T00:46:03.999Z,4.10
2019-02-15T00:48:31.442Z,4.06
2019-02-15T00:51:06.634Z,4.09
2019-02-15T00:53:54.192Z,4.03
2019-02-15T00:56:33.219Z,4.00
2019-02-15T00:59:05.235Z,3.73
2019-02-15T01:01:41.770Z,3.82
2019-02-15T01:04:10.350Z,3.85
2019-02-15T01:06:40.151Z,3.80
2019-02-15T01:09:25.443Z,3.74
2019-02-15T01:14:51.363Z,3.72
2019-02-15T01:17:21.776Z,3.59
2019-02-15T01:19:49.154Z,3.57
2019-02-15T01:22:15.800Z,3.64
2019-02-15T01:24:44.959Z,3.71
2019-02-15T01:27:24.821Z,3.67
2019-02-15T01:30:02.140Z,3.72
2019-02-15T01:32:47.564Z,3.79
2019-02-15T01:35:21.711Z,3.95
2019-02-15T01:38:02.152Z,4.00
2019-02-15T01:40:37.586Z,4.04
2019-02-15T01:43:15.025Z,4.12
2019-02-15T01:45:46.210Z,4.03
2019-02-15T01:48:13.766Z,3.99
2019-02-15T01:50:40.607Z,3.80
2019-02-15T01:53:08.017Z,3.80
2019-02-15T01:55:35.579Z,3.77
2019-02-15T01:58:04.582Z,3.65
2019-02-15T02:00:32.548Z,3.73
2019-02-15T02:03:01.432Z,3.60
2019-02-15T02:05:28.321Z,3.71
2019-02-15T02:07:58.558Z,3.55
2019-02-15T02:10:27.039Z,3.33
2019-02-15T02:12:54.153Z,3.34
2019-02-15T02:15:22.999Z,3.35
2019-02-15T02:17:52.222Z,3.38
2019-02-15T02:20:24.254Z,3.32
2019-02-15T02:22:51.350Z,3.39
2019-02-15T02:25:18.484Z,3.24
2019-02-15T02:27:45.668Z,3.15
2019-02-15T02:33:37.919Z,2.88
2019-02-15T02:36:07.079Z,2.44
2019-02-15T02:38:35.423Z,2.31
2019-02-15T02:41:03.696Z,2.42
2019-02-15T02:43:30.712Z,2.25
2019-02-15T02:46:00.269Z,2.07
2019-02-15T02:48:27.462Z,1.94
2019-02-15T02:50:54.681Z,1.98
2019-02-15T02:53:28.219Z,2.08
2019-02-15T02:55:55.067Z,2.13
2019-02-15T02:58:21.952Z,1.92
2019-02-15T03:00:48.793Z,1.51
2019-02-15T03:03:15.267Z,1.62
2019-02-15T03:05:42.658Z,1.56
2019-02-15T03:08:09.935Z,1.51
2019-02-15T03:10:37.511Z,1.35
2019-02-15T03:13:07.593Z,1.36
2019-02-15T03:15:37.715Z,1.19
2019-02-15T03:18:06.204Z,0.91
2019-02-15T03:20:38.498Z,0.86
2019-02-15T03:23:05.695Z,1.04
2019-02-15T03:25:36.227Z,1.05
2019-02-15T03:28:05.170Z,0.95
2019-02-15T03:30:32.947Z,0.87
2019-02-15T03:33:01.033Z,0.90
2019-02-15T03:35:28.279Z,0.89
2019-02-15T03:37:58.480Z,1.03
2019-02-15T03:40:28.876Z,1.07
2019-02-15T03:42:57.206Z,0.99
2019-02-15T03:45:24.826Z,0.94
2019-02-15T03:47:55.517Z,0.66
2019-02-15T03:50:25.330Z,0.63
2019-02-15T03:52:53.212Z,0.57
2019-02-15T03:55:24.392Z,0.58
2019-02-15T03:57:53.615Z,0.63
2019-02-15T04:00:22.281Z,0.58
2019-02-15T04:05:45.267Z,0.67
2019-02-15T04:08:13.704Z,0.68
2019-02-15T04:10:43.319Z,0.71
2019-02-15T04:13:12.202Z,0.75
2019-02-15T04:15:48.993Z,0.78
2019-02-15T04:18:16.754Z,0.87
2019-02-15T04:20:46.259Z,0.98
2019-02-15T04:23:13.230Z,0.91
2019-02-15T04:25:40.700Z,0.92
2019-02-15T04:50:41.104Z,1.29
2019-02-15T04:56:17.410Z,1.24
2019-02-15T05:07:36.545Z,1.19
2019-02-15T05:10:09.876Z,1.28
2019-02-15T05:15:44.938Z,1.22
2019-02-15T05:21:40.598Z,1.27
2019-02-15T05:24:09.181Z,1.14
2019-02-15T05:26:36.924Z,1.25
2019-02-15T05:29:04.674Z,1.22
2019-02-15T05:31:33.519Z,1.25
2019-02-15T05:34:01.414Z,1.37
2019-02-15T05:36:30.104Z,1.24
2019-02-15T05:38:56.921Z,1.33
2019-02-15T05:41:24.354Z,1.28
2019-02-15T05:43:52.587Z,1.35
2019-02-15T05:46:20.387Z,1.28
2019-02-15T05:48:46.925Z,1.32
2019-02-15T05:51:13.181Z,1.24
2019-02-15T05:53:39.496Z,1.26
2019-02-15T05:56:05.794Z,1.27
2019-02-15T05:58:32.408Z,1.26
2019-02-15T06:00:58.676Z,1.19
2019-02-15T06:03:25.206Z,1.10
2019-02-15T06:05:51.729Z,1.12
2019-02-15T06:08:18.225Z,1.06
2019-02-15T06:10:44.454Z,1.09
2019-02-15T06:13:10.734Z,1.11
2019-02-15T06:15:36.995Z,0.97
2019-02-15T06:18:03.295Z,1.17
2019-02-15T06:20:29.573Z,1.11
2019-02-15T06:22:56.319Z,1.12
2019-02-15T06:25:22.543Z,0.97
2019-02-15T06:27:48.902Z,1.10
2019-02-15T06:30:15.210Z,1.13
2019-02-15T06:35:52.822Z,1.22
2019-02-15T06:38:19.101Z,1.28
2019-02-15T06:40:45.652Z,1.26
2019-02-15T06:43:12.177Z,1.23
2019-02-15T06:45:38.558Z,1.22
2019-02-15T06:48:06.045Z,1.21
2019-02-15T06:50:35.727Z,1.11
2019-02-15T06:53:04.577Z,1.13
2019-02-15T06:55:32.855Z,1.11
2019-02-15T06:58:00.755Z,1.11
2019-02-15T07:00:33.618Z,1.07
2019-02-15T07:03:05.105Z,1.19
2019-02-15T07:05:34.196Z,1.35
2019-02-15T07:08:01.135Z,1.47
2019-02-15T07:10:27.928Z,1.58
2019-02-15T07:12:54.224Z,1.58
2019-02-15T07:15:20.515Z,1.64
2019-02-15T07:17:47.655Z,1.66
2019-02-15T07:20:14.901Z,1.76
2019-02-15T07:22:42.888Z,1.72
2019-02-15T07:25:10.734Z,1.76
2019-02-15T07:27:38.772Z,1.79
2019-02-15T07:30:09.810Z,1.81
2019-02-15T07:32:37.273Z,1.90
2019-02-15T07:35:06.201Z,1.91
2019-02-15T07:37:34.480Z,1.83
2019-02-15T07:40:01.728Z,1.90
2019-02-15T07:42:29.549Z,1.87
2019-02-15T07:44:57.419Z,1.97
2019-02-15T07:47:24.827Z,1.90
2019-02-15T07:49:52.161Z,1.88
2019-02-15T07:52:20.858Z,2.00
2019-02-15T07:54:48.177Z,2.30
2019-02-15T07:57:15.677Z,2.45
2019-02-15T07:59:43.116Z,2.51
2019-02-15T08:02:10.700Z,2.38
2019-02-15T08:04:38.066Z,2.52
2019-02-15T08:07:05.196Z,2.60
2019-02-15T08:09:32.650Z,2.74
2019-02-15T08:11:59.913Z,2.80
2019-02-15T08:14:27.991Z,2.99
2019-02-15T08:16:55.466Z,3.06
2019-02-15T08:19:22.588Z,3.21
2019-02-15T08:21:49.726Z,3.27
2019-02-15T08:24:16.983Z,3.29
2019-02-15T08:26:44.045Z,3.24
2019-02-15T08:29:15.197Z,3.42
2019-02-15T08:31:42.456Z,3.60
2019-02-15T08:34:10.212Z,3.76
2019-02-15T08:36:37.448Z,3.74
2019-02-15T08:39:18.065Z,3.75
2019-02-15T08:42:00.674Z,3.79
2019-02-15T08:44:15.718Z,3.79
2019-02-15T08:46:43.160Z,3.92
2019-02-15T08:49:10.614Z,4.09
2019-02-15T08:51:38.161Z,4.19
2019-02-15T08:54:05.357Z,4.30
2019-02-15T08:56:33.015Z,4.34
2019-02-15T08:59:02.052Z,4.52
2019-02-15T09:01:31.234Z,4.57
2019-02-15T09:03:59.251Z,4.64
2019-02-15T09:06:26.742Z,4.74
2019-02-15T09:08:54.189Z,5.04
2019-02-15T09:11:22.066Z,5.08
2019-02-15T09:13:50.544Z,5.31
2019-02-15T09:16:18.000Z,5.54
2019-02-15T09:18:46.378Z,5.74
2019-02-15T09:21:15.563Z,5.86
2019-02-15T09:23:43.019Z,5.96
2019-02-15T09:26:18.006Z,6.20
2019-02-15T09:28:41.107Z,6.55
2019-02-15T09:31:08.464Z,6.78
2019-02-15T09:33:35.617Z,6.83
2019-02-15T09:36:03.268Z,7.07
2019-02-15T09:38:30.681Z,7.37
2019-02-15T09:40:58.990Z,7.59
2019-02-15T09:43:26.651Z,7.46
2019-02-15T09:45:54.536Z,7.40
2019-02-15T09:48:21.881Z,7.67
2019-02-15T09:50:49.645Z,7.82
2019-02-15T09:53:17.070Z,8.04
2019-02-15T09:55:44.478Z,8.34
2019-02-15T09:58:11.817Z,8.21
2019-02-15T10:00:39.612Z,8.35
2019-02-15T10:03:07.580Z,8.60
2019-02-15T10:05:34.890Z,8.77
2019-02-15T10:08:02.266Z,8.92
2019-02-15T10:10:29.796Z,8.86
2019-02-15T10:12:57.097Z,8.71
2019-02-15T10:15:24.319Z,8.98
2019-02-15T10:17:51.846Z,9.27
2019-02-15T10:20:19.036Z,9.41
2019-02-15T10:22:46.469Z,9.44
2019-02-15T10:25:16.852Z,9.52
2019-02-15T10:27:44.159Z,9.67
2019-02-15T10:30:12.576Z,9.93
2019-02-15T10:32:42.366Z,10.14
2019-02-15T10:35:10.127Z,10.50
2019-02-15T10:37:37.705Z,10.87
2019-02-15T10:40:09.974Z,10.72
2019-02-15T10:42:37.549Z,10.84
2019-02-15T10:45:15.743Z,11.17
2019-02-15T10:47:43.413Z,11.38
2019-02-15T10:50:10.997Z,11.78
2019-02-15T10:52:38.511Z,12.02
2019-02-15T10:55:07.704Z,11.90
2019-02-15T10:57:35.957Z,12.33
2019-02-15T11:00:14.467Z,12.56
2019-02-15T11:02:41.965Z,12.72
2019-02-15T11:05:09.431Z,12.84
2019-02-15T11:07:36.923Z,13.06
2019-02-15T11:10:10.151Z,13.39
2019-02-15T11:12:39.070Z,13.38
2019-02-15T11:15:13.274Z,13.17
2019-02-15T11:17:40.513Z,12.61
2019-02-15T11:20:13.243Z,12.72
2019-02-15T11:22:40.285Z,13.09
2019-02-15T11:25:09.560Z,13.33
2019-02-15T11:27:36.613Z,13.04
2019-02-15T11:30:13.329Z,13.44
2019-02-15T11:32:39.832Z,12.95
2019-02-15T11:35:11.021Z,12.35
2019-02-15T11:37:38.257Z,12.89
2019-02-15T11:40:10.914Z,12.90
2019-02-15T11:42:45.970Z,12.88
2019-02-15T11:45:13.559Z,12.70
2019-02-15T11:47:40.537Z,12.44
2019-02-15T11:50:11.497Z,12.77
2019-02-15T11:52:48.186Z,12.70
2019-02-15T11:55:17.788Z,12.80
2019-02-15T11:57:45.620Z,12.47
2019-02-15T12:00:18.456Z,12.62
2019-02-15T12:02:45.291Z,12.74
2019-02-15T12:05:12.263Z,12.71
2019-02-15T12:07:39.151Z,12.91
2019-02-15T12:10:08.649Z,12.84
2019-02-15T12:12:36.827Z,13.17
2019-02-15T12:15:06.299Z,13.25
2019-02-15T12:17:33.690Z,13.20
2019-02-15T12:20:03.561Z,13.12
2019-02-15T12:22:30.336Z,13.14
2019-02-15T12:24:57.308Z,13.19
2019-02-15T12:27:24.057Z,13.20
2019-02-15T12:29:50.353Z,13.49
2019-02-15T12:32:16.820Z,13.40
2019-02-15T12:34:43.295Z,13.50
2019-02-15T12:37:09.679Z,13.35
2019-02-15T12:39:36.320Z,13.47
2019-02-15T12:42:02.702Z,13.29
2019-02-15T12:44:29.107Z,13.29
2019-02-15T12:46:55.528Z,13.26
2019-02-15T12:49:22.146Z,12.94
2019-02-15T12:51:48.861Z,13.08
2019-02-15T12:54:15.503Z,13.26
2019-02-15T12:56:42.010Z,13.14
2019-02-15T12:59:08.790Z,13.14
2019-02-15T13:01:48.701Z,13.22
2019-02-15T13:04:19.512Z,13.20
2019-02-15T13:06:46.983Z,13.17
2019-02-15T13:09:13.960Z,13.26
2019-02-15T13:11:41.530Z,13.08
2019-02-15T13:14:08.602Z,12.95
2019-02-15T13:16:35.218Z,13.08
2019-02-15T13:19:02.235Z,13.15
2019-02-15T13:21:29.947Z,12.95
2019-02-15T13:23:56.688Z,12.97
2019-02-15T13:26:23.370Z,12.92
2019-02-15T13:28:49.989Z,12.81
2019-02-15T13:31:16.482Z,12.79
2019-02-15T13:33:42.950Z,12.92
2019-02-15T13:36:09.744Z,12.89
2019-02-15T13:38:36.103Z,12.79
2019-02-15T13:41:03.743Z,12.79
2019-02-15T13:43:30.081Z,12.75
2019-02-15T13:45:56.415Z,12.82
2019-02-15T13:48:22.886Z,12.67
2019-02-15T13:50:49.383Z,12.75
2019-02-15T13:53:16.013Z,12.61
2019-02-15T13:55:42.390Z,12.56
2019-02-15T13:58:08.879Z,12.62
2019-02-15T14:00:36.544Z,12.73
2019-02-15T14:03:03.104Z,12.52
2019-02-15T14:05:29.635Z,12.43
2019-02-15T14:07:56.559Z,12.35
2019-02-15T14:10:22.920Z,12.30
2019-02-15T14:12:50.055Z,12.25
2019-02-15T14:15:17.040Z,12.30
2019-02-15T14:17:46.372Z,12.21
2019-02-15T14:20:12.931Z,12.30
2019-02-15T14:22:39.219Z,12.33
2019-02-15T14:25:08.190Z,12.10
2019-02-15T14:27:34.953Z,12.23
2019-02-15T14:30:02.045Z,12.07
2019-02-15T14:32:32.479Z,12.17
2019-02-15T14:34:59.171Z,12.08
2019-02-15T14:37:26.141Z,12.11
2019-02-15T14:39:53.171Z,12.00
2019-02-15T14:42:20.249Z,11.99
2019-02-15T14:44:47.041Z,12.10
2019-02-15T14:47:13.650Z,12.08
2019-02-15T14:49:40.083Z,11.94
2019-02-15T14:52:07.231Z,11.98
2019-02-15T14:54:33.942Z,12.06
2019-02-15T14:57:00.654Z,12.03
2019-02-15T14:59:28.673Z,11.96
2019-02-15T15:01:57.082Z,11.86
2019-02-15T15:04:24.142Z,11.93
2019-02-15T15:06:51.310Z,11.91
2019-02-15T15:09:18.183Z,11.79
2019-02-15T15:11:45.568Z,11.73
2019-02-15T15:14:12.368Z,11.82
2019-02-15T15:16:39.047Z,11.76
2019-02-15T15:19:05.598Z,11.79
2019-02-15T15:21:32.233Z,11.81
2019-02-15T15:23:58.883Z,11.82
2019-02-15T15:26:25.465Z,11.78
2019-02-15T15:28:52.448Z,11.81
2019-02-15T15:31:18.942Z,11.67
2019-02-15T15:33:45.547Z,11.60
2019-02-15T15:36:12.060Z,11.71
2019-02-15T15:38:38.669Z,11.56
2019-02-15T15:41:05.638Z,11.56
2019-02-15T15:43:32.717Z,11.41
2019-02-15T15:45:59.355Z,11.40
2019-02-15T15:48:26.123Z,11.26
2019-02-15T15:50:55.097Z,11.41
2019-02-15T15:53:21.460Z,11.34
2019-02-15T15:55:48.369Z,11.43
2019-02-15T15:58:15.206Z,11.27
2019-02-15T16:00:42.042Z,11.22
2019-02-15T16:03:10.593Z,11.18
2019-02-15T16:05:37.278Z,11.12
2019-02-15T16:08:04.093Z,11.03
2019-02-15T16:10:30.616Z,10.97
2019-02-15T16:12:56.990Z,11.02
2019-02-15T16:15:23.307Z,11.00
2019-02-15T16:17:49.683Z,10.87
2019-02-15T16:20:16.550Z,10.77
2019-02-15T16:22:43.257Z,10.86
2019-02-15T16:25:10.032Z,10.70
2019-02-15T16:27:36.810Z,10.77
2019-02-15T16:30:07.879Z,10.69
2019-02-15T16:32:34.781Z,10.73
2019-02-15T16:35:01.325Z,10.67
2019-02-15T16:37:27.843Z,10.57
2019-02-15T16:39:54.562Z,10.31
2019-02-15T16:42:21.026Z,10.25
2019-02-15T16:44:47.459Z,10.18
2019-02-15T16:47:13.964Z,10.03
2019-02-15T16:49:40.255Z,10.14
2019-02-15T16:52:06.561Z,10.04
2019-02-15T16:54:33.060Z,9.88
2019-02-15T16:56:59.726Z,9.91
2019-02-15T16:59:26.632Z,9.80
2019-02-15T17:01:53.268Z,9.67
2019-02-15T17:04:20.434Z,9.70
2019-02-15T17:06:47.004Z,9.56
2019-02-15T17:09:17.103Z,9.48
2019-02-15T17:11:43.976Z,9.41
2019-02-15T17:14:10.425Z,9.33
2019-02-15T17:16:36.927Z,9.24
2019-02-15T17:19:06.633Z,9.22
2019-02-15T17:21:35.416Z,9.12
2019-02-15T17:24:03.411Z,9.53
2019-02-15T17:26:29.937Z,9.38
2019-02-15T17:29:01.182Z,9.16
2019-02-15T17:31:32.129Z,9.05
2019-02-15T17:34:01.312Z,9.06
2019-02-15T17:36:27.959Z,8.92
2019-02-15T17:38:54.891Z,8.87
2019-02-15T17:41:22.977Z,8.85
2019-02-15T17:43:50.095Z,8.74
2019-02-15T17:46:22.610Z,8.66
2019-02-15T17:49:00.563Z,8.45
2019-02-15T17:51:22.291Z,8.47
2019-02-15T17:53:48.943Z,8.43
2019-02-15T17:56:15.549Z,8.38
2019-02-15T17:58:42.816Z,8.36
2019-02-15T18:01:13.130Z,8.33
2019-02-15T18:03:41.731Z,8.32
2019-02-15T18:06:08.828Z,8.34
2019-02-15T18:08:37.764Z,8.27
2019-02-15T18:11:04.433Z,8.43
2019-02-15T18:13:33.516Z,8.30
2019-02-15T18:16:00.085Z,8.31
2019-02-15T18:18:26.434Z,8.26
2019-02-15T18:20:52.915Z,8.16
2019-02-15T18:23:19.764Z,8.08
2019-02-15T18:25:46.199Z,8.08
2019-02-15T18:28:12.769Z,8.02
2019-02-15T18:30:39.178Z,8.02
2019-02-15T18:33:05.694Z,7.90
2019-02-15T18:35:32.372Z,7.91
2019-02-15T18:37:58.865Z,7.78
2019-02-15T18:40:25.163Z,7.82
2019-02-15T18:42:51.860Z,7.76
2019-02-15T18:45:18.179Z,7.67
2019-02-15T18:47:44.851Z,7.67
2019-02-15T18:50:11.475Z,7.57
2019-02-15T18:52:37.805Z,7.57
2019-02-15T18:55:07.007Z,7.55
2019-02-15T18:57:33.482Z,7.59
2019-02-15T19:03:24.303Z,7.52
2019-02-15T19:05:50.559Z,7.48
2019-02-15T19:11:27.972Z,7.54
2019-02-15T19:13:54.593Z,7.48
2019-02-15T19:16:20.849Z,7.50
2019-02-15T19:22:12.409Z,7.31
2019-02-15T19:27:50.276Z,7.17
2019-02-15T19:30:23.297Z,7.22
2019-02-15T19:36:15.853Z,7.00
2019-02-15T19:42:27.909Z,7.04
2019-02-15T19:48:06.766Z,6.90
2019-02-15T19:50:33.284Z,6.82
2019-02-15T19:53:00.188Z,6.82
2019-02-15T19:55:26.520Z,6.75
2019-02-15T19:57:53.964Z,6.72
2019-02-15T20:00:20.372Z,6.68
2019-02-15T20:02:47.180Z,6.61
2019-02-15T20:05:13.774Z,6.76
2019-02-15T20:07:40.673Z,6.88
2019-02-15T20:10:10.695Z,6.70
2019-02-15T20:12:37.243Z,6.78
2019-02-15T20:15:08.127Z,6.74
2019-02-15T20:17:34.844Z,6.85
2019-02-15T20:20:01.143Z,6.95
2019-02-15T20:22:27.559Z,6.89
2019-02-15T20:24:53.809Z,7.00
2019-02-15T20:30:44.479Z,6.88
2019-02-15T20:33:10.831Z,6.93
2019-02-15T20:39:01.190Z,7.23
2019-02-15T20:44:43.817Z,7.50
2019-02-15T20:47:10.467Z,7.63
2019-02-15T20:49:37.027Z,7.74
2019-02-15T20:52:03.705Z,7.83
2019-02-15T20:54:30.759Z,7.87
2019-02-15T20:56:57.321Z,7.76
2019-02-15T21:02:35.320Z,7.48
2019-02-15T21:05:02.088Z,7.41
2019-02-15T21:07:28.563Z,7.20
2019-02-15T21:09:55.266Z,7.07
2019-02-15T21:12:21.881Z,6.89
2019-02-15T21:14:48.366Z,6.85
2019-02-15T21:20:37.858Z,6.64
2019-02-15T21:23:04.434Z,6.57
2019-02-15T21:25:31.070Z,6.52
2019-02-15T21:27:57.402Z,6.45
2019-02-15T21:30:24.014Z,6.31
2019-02-15T21:32:50.471Z,6.16
2019-02-15T21:35:16.770Z,6.10
2019-02-15T21:37:42.977Z,6.13
2019-02-15T21:40:14.419Z,6.00
2019-02-15T21:42:40.729Z,6.17
2019-02-15T21:45:29.897Z,6.36
2019-02-15T21:47:56.579Z,6.05
2019-02-15T21:50:22.899Z,5.95
2019-02-15T21:52:49.661Z,5.93
2019-02-15T21:55:15.933Z,5.84
2019-02-15T21:57:42.250Z,5.91
2019-02-15T22:00:11.806Z,5.92
2019-02-15T22:02:38.207Z,5.86
2019-02-15T22:05:05.041Z,6.11
2019-02-15T22:07:31.406Z,6.09
2019-02-15T22:09:58.144Z,6.12
2019-02-15T22:12:24.566Z,6.24
2019-02-15T22:14:51.204Z,6.22
2019-02-15T22:17:17.413Z,6.31
2019-02-15T22:19:43.973Z,6.39
2019-02-15T22:22:10.559Z,6.50
2019-02-15T22:24:36.884Z,6.63
2019-02-15T22:27:05.353Z,6.66
2019-02-15T22:29:31.855Z,6.82
2019-02-15T22:31:58.436Z,6.86
2019-02-15T22:34:24.930Z,6.95
2019-02-15T22:36:51.326Z,6.97
2019-02-15T22:39:17.966Z,7.14
2019-02-15T22:44:55.218Z,7.34
2019-02-15T22:47:21.688Z,7.41
2019-02-15T22:49:48.459Z,7.40
2019-02-15T22:52:14.787Z,7.32
2019-02-15T22:54:41.042Z,7.20
2019-02-15T22:57:07.584Z,7.17
2019-02-15T22:59:35.903Z,7.04
2019-02-15T23:02:03.864Z,6.94
2019-02-15T23:04:30.608Z,6.97
2019-02-15T23:06:57.107Z,6.80
2019-02-15T23:09:24.565Z,6.79
2019-02-15T23:15:15.646Z,6.51
2019-02-15T23:20:54.709Z,6.67
2019-02-15T23:23:20.979Z,6.68
2019-02-15T23:29:22.769Z,6.49
2019-02-15T23:31:49.168Z,6.49
2019-02-15T23:34:15.510Z,6.57
2019-02-15T23:36:42.145Z,6.67
2019-02-15T23:39:08.917Z,6.44
2019-02-15T23:41:35.217Z,6.59
2019-02-15T23:44:02.168Z,6.49
2019-02-15T23:46:28.622Z,6.52
2019-02-15T23:48:55.193Z,6.38
2019-02-15T23:51:21.552Z,6.33
2019-02-15T23:53:48.059Z,6.45
2019-02-15T23:56:14.643Z,6.59
2019-02-15T23:58:41.169Z,6.48
